Wetterdaten: Woche 28.07.08 - 03.08.08 (KW31)
Datum Zeit Temperatur Luftfeuchte Luftdruck Niederschlag Wind Richtung Sonnenschein Solar Taupunkt Windchill Windben
28.07.2008 00:00 20.6 C 85 % 1013.9 hPa 0.0 l/m 0.2 km/h (0 Bft) N-NO 0.00 h 0 W/m 18.1 C 20.6 C 1.1 km/h (1 Bft)
28.07.2008 01:00 19.5 C 90 % 1014.0 hPa 0.0 l/m 0.2 km/h (0 Bft) N-NO 0.00 h 0 W/m 17.9 C 19.5 C 0.6 km/h (0 Bft)
28.07.2008 02:00 19.1 C 92 % 1013.8 hPa 0.0 l/m 0.6 km/h (0 Bft) NO 0.00 h 0 W/m 17.8 C 19.1 C 1.6 km/h (1 Bft)
28.07.2008 03:00 18.7 C 93 % 1013.9 hPa 0.0 l/m 1.1 km/h (1 Bft) NO 0.00 h 0 W/m 17.6 C 18.7 C 2.2 km/h (1 Bft)
28.07.2008 04:00 18.0 C 95 % 1014.1 hPa 0.0 l/m 0.9 km/h (0 Bft) O-NO 0.00 h 0 W/m 17.2 C 18.0 C 2.2 km/h (1 Bft)
28.07.2008 05:00 17.6 C 97 % 1014.0 hPa 0.0 l/m 0.5 km/h (0 Bft) O-NO 0.00 h 0 W/m 17.1 C 17.6 C 1.4 km/h (1 Bft)
28.07.2008 06:00 17.5 C 97 % 1014.1 hPa 0.0 l/m 0.8 km/h (0 Bft) O-NO 0.00 h 20 W/m 17.1 C 17.5 C 1.7 km/h (1 Bft)
28.07.2008 07:00 18.3 C 97 % 1014.3 hPa 0.0 l/m 0.1 km/h (0 Bft) O-NO 0.00 h 86 W/m 17.8 C 18.3 C 0.7 km/h (0 Bft)
28.07.2008 08:00 19.9 C 91 % 1014.5 hPa 0.0 l/m 0.6 km/h (0 Bft) N-NW 0.73 h 257 W/m 18.3 C 19.9 C 1.7 km/h (1 Bft)
28.07.2008 09:00 22.2 C 80 % 1014.4 hPa 0.0 l/m 1.2 km/h (1 Bft) W-NW 1.00 h 463 W/m 18.6 C 22.2 C 2.9 km/h (1 Bft)
28.07.2008 10:00 23.7 C 76 % 1014.3 hPa 0.0 l/m 1.4 km/h (1 Bft) W-NW 0.85 h 510 W/m 19.2 C 23.7 C 3.2 km/h (1 Bft)
28.07.2008 11:00 25.2 C 70 % 1014.2 hPa 0.0 l/m 2.2 km/h (1 Bft) S-SO 0.85 h 527 W/m 19.3 C 25.2 C 4.9 km/h (1 Bft)
28.07.2008 12:00 27.2 C 62 % 1013.6 hPa 0.0 l/m 2.1 km/h (1 Bft) N-NW 0.97 h 758 W/m 19.3 C 27.2 C 4.3 km/h (1 Bft)
28.07.2008 13:00 28.0 C 57 % 1013.2 hPa 0.0 l/m 2.5 km/h (1 Bft) O-SO 0.90 h 817 W/m 18.7 C 28.0 C 4.9 km/h (1 Bft)
28.07.2008 14:00 29.2 C 52 % 1012.9 hPa 0.0 l/m 4.5 km/h (1 Bft) N-NW 0.70 h 647 W/m 18.2 C 29.2 C 7.2 km/h (2 Bft)
28.07.2008 15:00 30.6 C 46 % 1012.4 hPa 0.0 l/m 4.2 km/h (1 Bft) W-NW 0.97 h 734 W/m 17.5 C 30.6 C 7.1 km/h (2 Bft)
28.07.2008 16:00 31.4 C 40 % 1012.2 hPa 0.0 l/m 5.4 km/h (1 Bft) W 1.00 h 634 W/m 16.2 C 31.4 C 8.7 km/h (2 Bft)
28.07.2008 17:00 31.2 C 42 % 1012.2 hPa 0.0 l/m 5.0 km/h (1 Bft) W 0.98 h 489 W/m 16.7 C 31.2 C 8.0 km/h (2 Bft)
28.07.2008 18:00 30.4 C 44 % 1012.1 hPa 0.0 l/m 3.7 km/h (1 Bft) W 0.93 h 338 W/m 16.8 C 30.4 C 6.3 km/h (2 Bft)
28.07.2008 19:00 28.6 C 51 % 1012.4 hPa 0.0 l/m 6.3 km/h (2 Bft) SO 1.00 h 208 W/m 17.3 C 28.6 C 10.3 km/h (2 Bft)
28.07.2008 20:00 25.0 C 65 % 1013.6 hPa 0.0 l/m 3.5 km/h (1 Bft) O-SO 0.52 h 64 W/m 18.0 C 25.0 C 7.0 km/h (2 Bft)
28.07.2008 21:00 21.7 C 79 % 1014.4 hPa 0.0 l/m 3.9 km/h (1 Bft) O 0.00 h 0 W/m 17.9 C 21.7 C 7.8 km/h (2 Bft)
28.07.2008 22:00 20.2 C 84 % 1014.2 hPa 0.0 l/m 0.2 km/h (0 Bft) N 0.00 h 0 W/m 17.4 C 20.2 C 1.0 km/h (0 Bft)
28.07.2008 23:00 19.1 C 91 % 1014.3 hPa 0.0 l/m 0.4 km/h (0 Bft) NO 0.00 h 0 W/m 17.6 C 19.1 C 0.7 km/h (0 Bft)
29.07.2008 00:00 18.4 C 96 % 1013.9 hPa 0.0 l/m 0.1 km/h (0 Bft) NO 0.00 h 0 W/m 17.7 C 18.4 C 0.6 km/h (0 Bft)
29.07.2008 01:00 17.8 C 98 % 1013.8 hPa 0.0 l/m 0.0 km/h (0 Bft) N 0.00 h 0 W/m 17.5 C 17.8 C 0.0 km/h (0 Bft)
29.07.2008 02:00 17.3 C 98 % 1014.2 hPa 0.0 l/m 0.1 km/h (0 Bft) NO 0.00 h 0 W/m 17.0 C 17.3 C 0.5 km/h (0 Bft)
29.07.2008 03:00 16.7 C 97 % 1014.6 hPa 0.2 l/m 0.1 km/h (0 Bft) NO 0.00 h 0 W/m 16.3 C 16.7 C 0.3 km/h (0 Bft)
29.07.2008 04:00 16.6 C 98 % 1015.1 hPa 0.0 l/m 0.1 km/h (0 Bft) NO 0.00 h 0 W/m 16.3 C 16.6 C 0.5 km/h (0 Bft)
29.07.2008 05:00 16.8 C 99 % 1015.5 hPa 0.0 l/m 0.5 km/h (0 Bft) NW 0.00 h 0 W/m 16.6 C 16.8 C 1.3 km/h (1 Bft)
29.07.2008 06:00 16.5 C 100 % 1015.9 hPa 0.0 l/m 3.1 km/h (1 Bft) O-SO 0.00 h 24 W/m 16.4 C 16.5 C 4.9 km/h (1 Bft)
29.07.2008 07:00 17.2 C 100 % 1016.6 hPa 0.0 l/m 1.3 km/h (1 Bft) S-SO 0.00 h 79 W/m 17.2 C 17.2 C 3.4 km/h (1 Bft)
29.07.2008 08:00 19.1 C 93 % 1017.1 hPa 0.0 l/m 0.3 km/h (0 Bft) O-SO 0.10 h 166 W/m 17.8 C 19.1 C 1.3 km/h (1 Bft)
29.07.2008 09:00 21.2 C 80 % 1017.3 hPa 0.0 l/m 1.7 km/h (1 Bft) W-NW 0.22 h 291 W/m 17.6 C 21.2 C 3.6 km/h (1 Bft)
29.07.2008 10:00 23.3 C 72 % 1017.0 hPa 0.0 l/m 2.6 km/h (1 Bft) N 0.90 h 550 W/m 17.9 C 23.3 C 4.8 km/h (1 Bft)
29.07.2008 11:00 24.1 C 69 % 1016.7 hPa 0.0 l/m 2.3 km/h (1 Bft) O-SO 0.63 h 524 W/m 18.0 C 24.1 C 4.4 km/h (1 Bft)
29.07.2008 12:00 25.9 C 63 % 1016.4 hPa 0.0 l/m 2.8 km/h (1 Bft) W-NW 0.95 h 731 W/m 18.2 C 25.9 C 4.8 km/h (1 Bft)
29.07.2008 13:00 27.6 C 53 % 1016.0 hPa 0.0 l/m 2.9 km/h (1 Bft) W-NW 1.00 h 817 W/m 17.0 C 27.6 C 5.6 km/h (1 Bft)
29.07.2008 14:00 29.2 C 48 % 1015.8 hPa 0.0 l/m 2.9 km/h (1 Bft) W-NW 0.97 h 815 W/m 16.9 C 29.2 C 5.8 km/h (2 Bft)
29.07.2008 15:00 29.5 C 47 % 1015.3 hPa 0.0 l/m 6.8 km/h (2 Bft) W 0.58 h 500 W/m 17.0 C 29.5 C 11.1 km/h (2 Bft)
29.07.2008 16:00 29.2 C 47 % 1015.0 hPa 0.0 l/m 9.0 km/h (2 Bft) W 0.55 h 495 W/m 16.7 C 29.2 C 14.7 km/h (3 Bft)
29.07.2008 17:00 30.0 C 43 % 1014.7 hPa 0.0 l/m 8.0 km/h (2 Bft) W 0.80 h 437 W/m 15.9 C 30.0 C 13.1 km/h (3 Bft)
29.07.2008 18:00 27.5 C 48 % 1015.0 hPa 0.0 l/m 5.7 km/h (1 Bft) W 0.00 h 114 W/m 15.4 C 27.5 C 9.5 km/h (2 Bft)
29.07.2008 19:00 26.7 C 50 % 1015.2 hPa 0.0 l/m 3.1 km/h (1 Bft) W 0.03 h 89 W/m 15.5 C 26.7 C 6.0 km/h (2 Bft)
29.07.2008 20:00 26.0 C 53 % 1015.2 hPa 0.0 l/m 0.8 km/h (0 Bft) S-SO 0.27 h 35 W/m 15.7 C 26.0 C 2.6 km/h (1 Bft)
29.07.2008 21:00 25.4 C 57 % 1015.9 hPa 0.0 l/m 0.3 km/h (0 Bft) S-SO 0.00 h 6 W/m 16.2 C 25.4 C 1.4 km/h (1 Bft)
29.07.2008 22:00 24.0 C 65 % 1016.5 hPa 0.0 l/m 0.7 km/h (0 Bft) SO 0.00 h 0 W/m 16.9 C 24.0 C 2.0 km/h (1 Bft)
29.07.2008 23:00 23.4 C 70 % 1017.0 hPa 0.0 l/m 1.5 km/h (1 Bft) NO 0.00 h 0 W/m 17.5 C 23.4 C 3.3 km/h (1 Bft)
30.07.2008 00:00 22.3 C 75 % 1017.0 hPa 0.0 l/m 0.5 km/h (0 Bft) O-SO 0.00 h 0 W/m 17.7 C 22.3 C 1.3 km/h (1 Bft)
30.07.2008 01:00 21.2 C 79 % 1017.2 hPa 0.0 l/m 0.5 km/h (0 Bft) O-SO 0.00 h 0 W/m 17.4 C 21.2 C 1.3 km/h (1 Bft)
30.07.2008 02:00 20.0 C 84 % 1016.8 hPa 0.0 l/m 0.5 km/h (0 Bft) O-SO 0.00 h 0 W/m 17.3 C 20.0 C 1.6 km/h (1 Bft)
30.07.2008 03:00 19.1 C 89 % 1016.9 hPa 0.0 l/m 0.9 km/h (0 Bft) O-SO 0.00 h 0 W/m 17.1 C 19.1 C 2.1 km/h (1 Bft)
30.07.2008 04:00 18.2 C 92 % 1016.9 hPa 0.0 l/m 1.0 km/h (0 Bft) O-SO 0.00 h 0 W/m 16.9 C 18.2 C 2.1 km/h (1 Bft)
30.07.2008 05:00 17.6 C 94 % 1017.1 hPa 0.0 l/m 0.5 km/h (0 Bft) O-SO 0.00 h 5 W/m 16.6 C 17.6 C 1.5 km/h (1 Bft)
30.07.2008 06:00 17.4 C 96 % 1017.5 hPa 0.0 l/m 0.0 km/h (0 Bft) O-SO 0.15 h 23 W/m 16.7 C 17.4 C 0.3 km/h (0 Bft)
30.07.2008 07:00 18.1 C 95 % 1017.7 hPa 0.0 l/m 0.0 km/h (0 Bft) N 0.33 h 98 W/m 17.3 C 18.1 C 0.1 km/h (0 Bft)
30.07.2008 08:00 19.9 C 89 % 1017.6 hPa 0.0 l/m 0.2 km/h (0 Bft) NO 0.82 h 255 W/m 17.9 C 19.9 C 1.1 km/h (1 Bft)
30.07.2008 09:00 22.1 C 79 % 1017.5 hPa 0.0 l/m 2.2 km/h (1 Bft) N-NW 1.00 h 424 W/m 18.2 C 22.1 C 4.1 km/h (1 Bft)
30.07.2008 10:00 24.3 C 70 % 1017.3 hPa 0.0 l/m 3.3 km/h (1 Bft) NW 1.00 h 575 W/m 18.5 C 24.3 C 5.2 km/h (1 Bft)
30.07.2008 11:00 26.6 C 63 % 1017.1 hPa 0.0 l/m 2.3 km/h (1 Bft) W 1.00 h 682 W/m 18.9 C 26.6 C 4.7 km/h (1 Bft)
30.07.2008 12:00 28.3 C 57 % 1016.7 hPa 0.0 l/m 2.6 km/h (1 Bft) O-SO 1.00 h 750 W/m 19.0 C 28.3 C 5.1 km/h (1 Bft)
30.07.2008 13:00 28.8 C 53 % 1016.2 hPa 0.0 l/m 2.7 km/h (1 Bft) O-SO 0.65 h 576 W/m 18.4 C 28.8 C 5.3 km/h (1 Bft)
30.07.2008 14:00 28.2 C 54 % 1015.9 hPa 0.0 l/m 4.2 km/h (1 Bft) O-SO 0.00 h 245 W/m 17.8 C 28.2 C 6.6 km/h (2 Bft)
30.07.2008 15:00 27.6 C 57 % 1015.8 hPa 0.0 l/m 1.7 km/h (1 Bft) S 0.00 h 118 W/m 18.2 C 27.6 C 3.8 km/h (1 Bft)
30.07.2008 16:00 26.4 C 66 % 1016.1 hPa 0.0 l/m 1.3 km/h (1 Bft) W-NW 0.00 h 76 W/m 19.5 C 26.4 C 2.8 km/h (1 Bft)
30.07.2008 17:00 26.4 C 69 % 1016.6 hPa 0.0 l/m 2.4 km/h (1 Bft) W-NW 0.43 h 274 W/m 20.1 C 26.4 C 4.2 km/h (1 Bft)
30.07.2008 18:00 27.5 C 62 % 1016.1 hPa 0.0 l/m 3.1 km/h (1 Bft) W 0.92 h 283 W/m 19.5 C 27.5 C 5.7 km/h (1 Bft)
30.07.2008 19:00 27.6 C 61 % 1015.9 hPa 0.0 l/m 0.9 km/h (0 Bft) NW 0.47 h 147 W/m 19.2 C 27.6 C 2.6 km/h (1 Bft)
30.07.2008 20:00 25.5 C 71 % 1016.1 hPa 0.0 l/m 0.6 km/h (0 Bft) N-NO 0.00 h 20 W/m 19.7 C 25.5 C 2.0 km/h (1 Bft)
30.07.2008 21:00 24.0 C 75 % 1016.0 hPa 0.0 l/m 0.4 km/h (0 Bft) O-NO 0.00 h 0 W/m 19.3 C 24.0 C 1.2 km/h (1 Bft)
30.07.2008 22:00 23.0 C 75 % 1017.5 hPa 0.0 l/m 2.7 km/h (1 Bft) O-SO 0.00 h 0 W/m 18.4 C 23.0 C 4.7 km/h (1 Bft)
30.07.2008 23:00 22.5 C 71 % 1018.3 hPa 0.8 l/m 3.5 km/h (1 Bft) S-SO 0.00 h 0 W/m 16.9 C 22.5 C 7.2 km/h (2 Bft)
31.07.2008 00:00 21.2 C 69 % 1018.0 hPa 0.0 l/m 6.3 km/h (2 Bft) S-SO 0.00 h 0 W/m 15.3 C 21.2 C 11.5 km/h (2 Bft)
31.07.2008 01:00 19.7 C 75 % 1017.8 hPa 0.0 l/m 0.7 km/h (0 Bft) S-SO 0.00 h 0 W/m 15.2 C 19.7 C 2.3 km/h (1 Bft)
31.07.2008 02:00 18.0 C 87 % 1017.1 hPa 0.0 l/m 1.8 km/h (1 Bft) NO 0.00 h 0 W/m 15.7 C 18.0 C 3.2 km/h (1 Bft)
31.07.2008 03:00 17.5 C 87 % 1017.5 hPa 0.0 l/m 1.6 km/h (1 Bft) O-SO 0.00 h 0 W/m 15.2 C 17.5 C 3.0 km/h (1 Bft)
31.07.2008 04:00 17.2 C 87 % 1017.6 hPa 0.0 l/m 0.6 km/h (0 Bft) O 0.00 h 0 W/m 15.1 C 17.2 C 1.7 km/h (1 Bft)
31.07.2008 05:00 16.4 C 90 % 1017.3 hPa 0.0 l/m 0.9 km/h (0 Bft) O 0.00 h 0 W/m 14.8 C 16.4 C 1.8 km/h (1 Bft)
31.07.2008 06:00 15.9 C 91 % 1017.1 hPa 0.0 l/m 0.2 km/h (0 Bft) O-SO 0.00 h 15 W/m 14.4 C 15.9 C 0.9 km/h (0 Bft)
31.07.2008 07:00 16.8 C 92 % 1017.2 hPa 0.0 l/m 0.0 km/h (0 Bft) N 0.52 h 104 W/m 15.4 C 16.8 C 0.2 km/h (0 Bft)
31.07.2008 08:00 19.6 C 81 % 1017.2 hPa 0.0 l/m 0.3 km/h (0 Bft) O-SO 1.00 h 289 W/m 16.3 C 19.6 C 1.4 km/h (1 Bft)
31.07.2008 09:00 21.9 C 73 % 1017.1 hPa 0.0 l/m 1.4 km/h (1 Bft) W-SW 1.00 h 454 W/m 16.8 C 21.9 C 3.1 km/h (1 Bft)
31.07.2008 10:00 24.0 C 64 % 1016.6 hPa 0.0 l/m 1.8 km/h (1 Bft) N 1.00 h 602 W/m 16.8 C 24.0 C 4.0 km/h (1 Bft)
31.07.2008 11:00 25.7 C 58 % 1016.3 hPa 0.0 l/m 2.7 km/h (1 Bft) W-NW 1.00 h 716 W/m 16.9 C 25.7 C 5.0 km/h (1 Bft)
31.07.2008 12:00 27.4 C 51 % 1015.7 hPa 0.0 l/m 3.2 km/h (1 Bft) O-SO 1.00 h 790 W/m 16.2 C 27.4 C 6.0 km/h (2 Bft)
31.07.2008 13:00 29.6 C 44 % 1015.1 hPa 0.0 l/m 2.3 km/h (1 Bft) W 1.00 h 822 W/m 16.0 C 29.6 C 4.8 km/h (1 Bft)
31.07.2008 14:00 30.5 C 38 % 1014.6 hPa 0.0 l/m 1.9 km/h (1 Bft) SO 1.00 h 800 W/m 14.4 C 30.5 C 4.4 km/h (1 Bft)
31.07.2008 15:00 31.5 C 34 % 1014.1 hPa 0.0 l/m 2.4 km/h (1 Bft) SO 1.00 h 737 W/m 13.6 C 31.5 C 5.0 km/h (1 Bft)
31.07.2008 16:00 31.9 C 33 % 1013.7 hPa 0.0 l/m 3.5 km/h (1 Bft) SO 0.90 h 614 W/m 13.4 C 31.9 C 6.4 km/h (2 Bft)
31.07.2008 17:00 31.1 C 36 % 1013.4 hPa 0.0 l/m 1.5 km/h (1 Bft) S-SO 0.48 h 319 W/m 14.4 C 31.1 C 3.7 km/h (1 Bft)
31.07.2008 18:00 30.7 C 36 % 1013.2 hPa 0.0 l/m 2.1 km/h (1 Bft) S-SO 0.42 h 202 W/m 13.8 C 30.7 C 4.8 km/h (1 Bft)
31.07.2008 19:00 29.5 C 44 % 1012.7 hPa 0.0 l/m 2.0 km/h (1 Bft) SO 0.42 h 122 W/m 15.9 C 29.5 C 4.2 km/h (1 Bft)
31.07.2008 20:00 27.8 C 50 % 1012.9 hPa 0.0 l/m 2.8 km/h (1 Bft) SO 0.00 h 27 W/m 16.4 C 27.8 C 4.5 km/h (1 Bft)
31.07.2008 21:00 25.3 C 60 % 1013.3 hPa 0.0 l/m 2.5 km/h (1 Bft) O-SO 0.00 h 0 W/m 17.0 C 25.3 C 3.9 km/h (1 Bft)
31.07.2008 22:00 23.6 C 68 % 1013.7 hPa 0.0 l/m 1.3 km/h (1 Bft) O-SO 0.00 h 0 W/m 17.3 C 23.6 C 2.4 km/h (1 Bft)
31.07.2008 23:00 22.4 C 72 % 1013.7 hPa 0.0 l/m 1.2 km/h (1 Bft) O-SO 0.00 h 0 W/m 17.1 C 22.4 C 2.3 km/h (1 Bft)
01.08.2008 00:00 21.6 C 76 % 1013.7 hPa 0.0 l/m 1.0 km/h (0 Bft) O-SO 0.00 h 0 W/m 17.1 C 21.6 C 1.9 km/h (1 Bft)
01.08.2008 01:00 21.0 C 79 % 1013.7 hPa 0.0 l/m 0.6 km/h (0 Bft) O-SO 0.00 h 0 W/m 17.1 C 21.0 C 1.5 km/h (1 Bft)
01.08.2008 02:00 20.3 C 80 % 1013.9 hPa 0.0 l/m 1.4 km/h (1 Bft) O-SO 0.00 h 0 W/m 16.9 C 20.3 C 2.6 km/h (1 Bft)
01.08.2008 03:00 19.7 C 84 % 1014.0 hPa 0.0 l/m 0.6 km/h (0 Bft) O-SO 0.00 h 0 W/m 16.8 C 19.7 C 1.5 km/h (1 Bft)
01.08.2008 04:00 19.2 C 86 % 1014.0 hPa 0.0 l/m 0.8 km/h (0 Bft) O-SO 0.00 h 0 W/m 16.7 C 19.2 C 1.6 km/h (1 Bft)
01.08.2008 05:00 19.7 C 87 % 1015.1 hPa 0.8 l/m 2.6 km/h (1 Bft) O-SO 0.00 h 0 W/m 17.4 C 19.7 C 4.6 km/h (1 Bft)
01.08.2008 06:00 18.7 C 93 % 1015.1 hPa 0.4 l/m 3.6 km/h (1 Bft) O-SO 0.00 h 11 W/m 17.5 C 18.7 C 5.7 km/h (1 Bft)
01.08.2008 07:00 18.3 C 95 % 1015.7 hPa 0.2 l/m 1.9 km/h (1 Bft) SW 0.00 h 14 W/m 17.6 C 18.3 C 4.7 km/h (1 Bft)
01.08.2008 08:00 18.4 C 96 % 1016.4 hPa 0.0 l/m 1.8 km/h (1 Bft) N 0.00 h 35 W/m 17.7 C 18.4 C 4.1 km/h (1 Bft)
01.08.2008 09:00 18.2 C 97 % 1018.3 hPa 9.4 l/m 6.3 km/h (2 Bft) S-SO 0.00 h 10 W/m 17.6 C 18.2 C 11.1 km/h (2 Bft)
01.08.2008 10:00 18.2 C 98 % 1018.8 hPa 7.6 l/m 3.3 km/h (1 Bft) O-SO 0.00 h 23 W/m 18.0 C 18.2 C 5.7 km/h (1 Bft)
01.08.2008 11:00 19.3 C 100 % 1018.5 hPa 0.0 l/m 2.7 km/h (1 Bft) W-NW 0.02 h 303 W/m 19.2 C 19.3 C 4.8 km/h (1 Bft)
01.08.2008 12:00 20.6 C 97 % 1018.4 hPa 0.0 l/m 3.9 km/h (1 Bft) W-NW 0.20 h 409 W/m 20.1 C 20.6 C 7.0 km/h (2 Bft)
01.08.2008 13:00 21.7 C 85 % 1018.4 hPa 0.2 l/m 18.2 km/h (3 Bft) W 0.55 h 566 W/m 19.0 C 21.7 C 28.3 km/h (4 Bft)
01.08.2008 14:00 21.3 C 72 % 1018.6 hPa 0.0 l/m 17.6 km/h (3 Bft) W 0.35 h 437 W/m 16.1 C 21.3 C 26.6 km/h (4 Bft)
01.08.2008 15:00 20.3 C 77 % 1018.9 hPa 0.0 l/m 4.2 km/h (1 Bft) W 0.00 h 194 W/m 16.1 C 20.3 C 7.4 km/h (2 Bft)
01.08.2008 16:00 21.1 C 74 % 1018.4 hPa 0.0 l/m 1.0 km/h (0 Bft) S-SO 0.00 h 164 W/m 16.3 C 21.1 C 2.8 km/h (1 Bft)
01.08.2008 17:00 21.1 C 73 % 1018.7 hPa 0.2 l/m 3.9 km/h (1 Bft) S-SO 0.00 h 158 W/m 16.1 C 21.1 C 8.0 km/h (2 Bft)
01.08.2008 18:00 20.2 C 79 % 1018.6 hPa 0.0 l/m 3.2 km/h (1 Bft) S-SO 0.00 h 94 W/m 16.4 C 20.2 C 6.7 km/h (2 Bft)
01.08.2008 19:00 19.9 C 80 % 1018.8 hPa 0.0 l/m 2.5 km/h (1 Bft) S-SO 0.03 h 66 W/m 16.4 C 19.9 C 4.7 km/h (1 Bft)
01.08.2008 20:00 19.5 C 83 % 1019.2 hPa 0.0 l/m 0.1 km/h (0 Bft) SO 0.68 h 44 W/m 16.5 C 19.5 C 1.0 km/h (0 Bft)
01.08.2008 21:00 18.8 C 87 % 1019.2 hPa 0.0 l/m 1.1 km/h (0 Bft) SO 0.00 h 0 W/m 16.5 C 18.8 C 2.3 km/h (1 Bft)
01.08.2008 22:00 17.9 C 90 % 1019.7 hPa 0.0 l/m 0.6 km/h (0 Bft) O-NO 0.00 h 0 W/m 16.3 C 17.9 C 1.5 km/h (1 Bft)
01.08.2008 23:00 17.4 C 94 % 1019.9 hPa 0.0 l/m 0.3 km/h (0 Bft) O-NO 0.00 h 0 W/m 16.4 C 17.4 C 0.9 km/h (0 Bft)
02.08.2008 00:00 17.0 C 95 % 1019.8 hPa 0.0 l/m 1.4 km/h (1 Bft) O-NO 0.00 h 0 W/m 16.3 C 17.0 C 2.7 km/h (1 Bft)
02.08.2008 01:00 16.8 C 96 % 1019.5 hPa 0.0 l/m 0.3 km/h (0 Bft) O 0.00 h 0 W/m 16.2 C 16.8 C 1.4 km/h (1 Bft)
02.08.2008 02:00 16.7 C 97 % 1019.5 hPa 0.0 l/m 1.2 km/h (1 Bft) O-SO 0.00 h 0 W/m 16.2 C 16.7 C 2.2 km/h (1 Bft)
02.08.2008 03:00 16.7 C 97 % 1019.3 hPa 0.0 l/m 0.7 km/h (0 Bft) O-SO 0.00 h 0 W/m 16.2 C 16.7 C 1.6 km/h (1 Bft)
02.08.2008 04:00 16.7 C 97 % 1019.1 hPa 0.0 l/m 0.4 km/h (0 Bft) O-SO 0.00 h 0 W/m 16.2 C 16.7 C 1.1 km/h (1 Bft)
02.08.2008 05:00 16.7 C 97 % 1019.1 hPa 0.0 l/m 0.0 km/h (0 Bft) N 0.00 h 0 W/m 16.1 C 16.7 C 0.1 km/h (0 Bft)
02.08.2008 06:00 16.7 C 97 % 1019.2 hPa 0.0 l/m 0.1 km/h (0 Bft) O-SO 0.00 h 23 W/m 16.1 C 16.7 C 0.3 km/h (0 Bft)
02.08.2008 07:00 17.2 C 95 % 1019.1 hPa 0.0 l/m 0.0 km/h (0 Bft) O-SO 0.00 h 61 W/m 16.5 C 17.2 C 0.2 km/h (0 Bft)
02.08.2008 08:00 18.1 C 91 % 1019.4 hPa 0.0 l/m 0.2 km/h (0 Bft) O-SO 0.00 h 131 W/m 16.6 C 18.1 C 1.1 km/h (1 Bft)
02.08.2008 09:00 19.5 C 81 % 1019.3 hPa 0.0 l/m 1.2 km/h (1 Bft) SO 0.40 h 293 W/m 16.0 C 19.5 C 3.5 km/h (1 Bft)
02.08.2008 10:00 21.3 C 73 % 1019.2 hPa 0.0 l/m 3.8 km/h (1 Bft) W 0.47 h 424 W/m 16.1 C 21.3 C 6.6 km/h (2 Bft)
02.08.2008 11:00 21.8 C 68 % 1019.1 hPa 0.0 l/m 4.3 km/h (1 Bft) W-SW 0.52 h 454 W/m 15.5 C 21.8 C 7.5 km/h (2 Bft)
02.08.2008 12:00 22.2 C 65 % 1019.0 hPa 0.0 l/m 5.3 km/h (1 Bft) W 0.27 h 493 W/m 15.4 C 22.2 C 8.4 km/h (2 Bft)
02.08.2008 13:00 23.9 C 61 % 1018.6 hPa 0.0 l/m 4.0 km/h (1 Bft) W-SW 0.70 h 630 W/m 16.0 C 23.9 C 7.5 km/h (2 Bft)
02.08.2008 14:00 24.1 C 60 % 1018.3 hPa 0.0 l/m 5.7 km/h (1 Bft) W 0.38 h 445 W/m 15.9 C 24.1 C 9.7 km/h (2 Bft)
02.08.2008 15:00 25.3 C 54 % 1017.9 hPa 0.0 l/m 7.7 km/h (2 Bft) W 0.95 h 662 W/m 15.4 C 25.3 C 12.3 km/h (3 Bft)
02.08.2008 16:00 25.8 C 52 % 1017.8 hPa 0.0 l/m 7.5 km/h (2 Bft) W 0.78 h 552 W/m 15.3 C 25.8 C 12.5 km/h (3 Bft)
02.08.2008 17:00 25.7 C 53 % 1017.5 hPa 0.0 l/m 7.1 km/h (2 Bft) W 0.62 h 398 W/m 15.2 C 25.7 C 11.2 km/h (2 Bft)
02.08.2008 18:00 24.8 C 55 % 1017.4 hPa 0.0 l/m 7.1 km/h (2 Bft) W 0.40 h 213 W/m 15.2 C 24.8 C 11.5 km/h (2 Bft)
02.08.2008 19:00 23.8 C 56 % 1017.4 hPa 0.0 l/m 9.2 km/h (2 Bft) W 0.05 h 77 W/m 14.4 C 23.8 C 14.2 km/h (3 Bft)
02.08.2008 20:00 23.1 C 57 % 1017.7 hPa 0.0 l/m 9.6 km/h (2 Bft) W 0.05 h 21 W/m 14.1 C 23.1 C 14.6 km/h (3 Bft)
02.08.2008 21:00 22.0 C 60 % 1018.2 hPa 0.0 l/m 13.0 km/h (3 Bft) W 0.00 h 0 W/m 13.9 C 22.0 C 19.7 km/h (3 Bft)
02.08.2008 22:00 21.5 C 62 % 1018.8 hPa 0.0 l/m 10.3 km/h (2 Bft) W 0.00 h 0 W/m 13.8 C 21.5 C 16.2 km/h (3 Bft)
02.08.2008 23:00 21.2 C 64 % 1019.0 hPa 0.0 l/m 6.2 km/h (2 Bft) W 0.00 h 0 W/m 14.0 C 21.2 C 9.2 km/h (2 Bft)
03.08.2008 00:00 20.7 C 67 % 1018.9 hPa 0.0 l/m 3.4 km/h (1 Bft) W 0.00 h 0 W/m 14.4 C 20.7 C 5.9 km/h (2 Bft)
03.08.2008 01:00 20.2 C 71 % 1018.9 hPa 0.0 l/m 2.2 km/h (1 Bft) W 0.00 h 0 W/m 14.9 C 20.2 C 4.1 km/h (1 Bft)
03.08.2008 02:00 20.0 C 74 % 1018.8 hPa 0.0 l/m 1.2 km/h (1 Bft) W-SW 0.00 h 0 W/m 15.1 C 20.0 C 3.0 km/h (1 Bft)
03.08.2008 03:00 19.7 C 76 % 1018.7 hPa 0.0 l/m 0.1 km/h (0 Bft) W-SW 0.00 h 0 W/m 15.3 C 19.7 C 0.3 km/h (0 Bft)
03.08.2008 04:00 19.3 C 78 % 1018.4 hPa 0.0 l/m 1.0 km/h (0 Bft) S-SW 0.00 h 0 W/m 15.5 C 19.3 C 2.7 km/h (1 Bft)
03.08.2008 05:00 19.0 C 82 % 1018.3 hPa 0.0 l/m 2.0 km/h (1 Bft) SO 0.00 h 0 W/m 15.8 C 19.0 C 4.1 km/h (1 Bft)
03.08.2008 06:00 19.0 C 83 % 1018.4 hPa 0.0 l/m 0.4 km/h (0 Bft) SO 0.00 h 10 W/m 16.0 C 19.0 C 1.4 km/h (1 Bft)
03.08.2008 07:00 19.6 C 82 % 1018.5 hPa 0.0 l/m 1.0 km/h (0 Bft) W 0.17 h 94 W/m 16.4 C 19.6 C 2.0 km/h (1 Bft)
03.08.2008 08:00 19.2 C 85 % 1019.0 hPa 0.0 l/m 6.1 km/h (2 Bft) W-NW 0.00 h 93 W/m 16.6 C 19.2 C 9.7 km/h (2 Bft)
03.08.2008 09:00 19.8 C 81 % 1019.1 hPa 0.0 l/m 8.1 km/h (2 Bft) W 0.00 h 141 W/m 16.5 C 19.8 C 13.4 km/h (3 Bft)
03.08.2008 10:00 21.5 C 74 % 1019.0 hPa 0.0 l/m 10.7 km/h (2 Bft) W 0.58 h 518 W/m 16.6 C 21.5 C 17.0 km/h (3 Bft)
03.08.2008 11:00 22.2 C 69 % 1018.8 hPa 0.0 l/m 13.3 km/h (3 Bft) W 0.40 h 471 W/m 16.2 C 22.2 C 20.0 km/h (4 Bft)
03.08.2008 12:00 23.2 C 67 % 1018.3 hPa 0.0 l/m 6.7 km/h (2 Bft) W 0.27 h 410 W/m 16.8 C 23.2 C 11.0 km/h (2 Bft)
03.08.2008 13:00 25.0 C 62 % 1017.5 hPa 0.0 l/m 6.2 km/h (2 Bft) W 0.70 h 764 W/m 17.1 C 25.0 C 10.5 km/h (2 Bft)
03.08.2008 14:00 26.6 C 56 % 1016.5 hPa 0.0 l/m 7.8 km/h (2 Bft) W 1.00 h 849 W/m 16.9 C 26.6 C 12.7 km/h (3 Bft)
03.08.2008 15:00 27.5 C 53 % 1015.9 hPa 0.0 l/m 7.1 km/h (2 Bft) W 0.93 h 757 W/m 17.1 C 27.5 C 11.7 km/h (2 Bft)
03.08.2008 16:00 28.1 C 52 % 1015.2 hPa 0.0 l/m 9.2 km/h (2 Bft) W-NW 1.00 h 635 W/m 17.2 C 28.1 C 14.4 km/h (3 Bft)
03.08.2008 17:00 28.2 C 51 % 1014.6 hPa 0.0 l/m 7.2 km/h (2 Bft) W 1.00 h 495 W/m 17.2 C 28.2 C 11.3 km/h (2 Bft)
03.08.2008 18:00 27.6 C 54 % 1014.1 hPa 0.0 l/m 7.1 km/h (2 Bft) W 1.00 h 331 W/m 17.3 C 27.6 C 11.3 km/h (2 Bft)
03.08.2008 19:00 26.8 C 56 % 1013.8 hPa 0.0 l/m 6.8 km/h (2 Bft) W 1.00 h 168 W/m 17.2 C 26.8 C 10.8 km/h (2 Bft)
03.08.2008 20:00 25.0 C 61 % 1013.5 hPa 0.0 l/m 3.7 km/h (1 Bft) W 0.27 h 32 W/m 17.0 C 25.0 C 6.0 km/h (2 Bft)
03.08.2008 21:00 22.7 C 70 % 1013.6 hPa 0.0 l/m 1.1 km/h (1 Bft) W-NW 0.00 h 0 W/m 16.8 C 22.7 C 2.4 km/h (1 Bft)
03.08.2008 22:00 20.9 C 78 % 1013.6 hPa 0.0 l/m 1.4 km/h (1 Bft) O 0.00 h 0 W/m 16.9 C 20.9 C 2.5 km/h (1 Bft)
03.08.2008 23:00 19.7 C 83 % 1013.5 hPa 0.0 l/m 2.3 km/h (1 Bft) O 0.00 h 0 W/m 16.7 C 19.7 C 3.5 km/h (1 Bft)
Min-Datum _ 31.07.08 31.07.08 28.07.08 - 28.07.08 - - - 31.07.08 31.07.08 28.07.08
_ Min-Zeit 06:13 16:45 18:00 - 00:00 - - - 16:45 06:13 00:00
Minimum _ 15.7 C 29 % 1011.9 hPa - 0.0 km/h (0 Bft) - - - 11.6 C 15.7 C 0.0 km/h (0 Bft)
Max-Datum _ 31.07.08 29.07.08 01.08.08 01.08.08 01.08.08 - 02.08.08 03.08.08 30.07.08 31.07.08 01.08.08
_ Max-Zeit 16:02 06:20 23:00 09:10 14:17 - 11:09 13:14 17:58 16:02 14:17
Maximum _ 32.5 C 100 % 1020.0 hPa 9.4 l/m 36.5 km/h
W (5 Bft)
- 0.07 h 1044 W/m 20.9 C 32.5 C 53.9 km/h
W (7 Bft)
Durchschnitt _ 22.4 C 73 % 1016.4 hPa #19.8 l/m 3.0 km/h (1 Bft) W #52:38 h 342 W/m 16.8 C 22.4 C 5.3 km/h (1 Bft)
© Kaiko 2008